This is the latest recevied weather packets stored in our database for station/object IW4DZV-13. If no packets are shown the sender has not sent any weather packets the latest 10 day(s).
| Time | Temp. | Humidity | Pressure | Rain* | Wind** | Luminosity | Snow |
|---|---|---|---|---|---|---|---|
| 1777761933 | 13.33° C | 60% | 1019.7 hPa | 0 mm | - | 0 W/m² | - |
| 1777761030 | 14.44° C | 59% | 1019.8 hPa | 0 mm | - | 0 W/m² | - |
| 1777760126 | 15° C | 57% | 1019.9 hPa | 0 mm | - | 0 W/m² | - |
| 1777759223 | 15° C | 56% | 1019.9 hPa | 0 mm | - | 0 W/m² | - |
| 1777758334 | 15.56° C | 55% | 1020 hPa | 0 mm | - | 0 W/m² | - |
| 1777757422 | 15.56° C | 55% | 1020 hPa | 0 mm | - | 0 W/m² | - |
| 1777756528 | 15.56° C | 55% | 1020 hPa | 0 mm | - | 0 W/m² | - |
| 1777755626 | 15° C | 56% | 1020.1 hPa | 0 mm | - | 0 W/m² | - |
| 1777754721 | 15° C | 58% | 1020.2 hPa | 0 mm | - | 0 W/m² | - |
| 1777753821 | 15° C | 58% | 1020.2 hPa | 0 mm | - | 0 W/m² | - |
| 1777752920 | 15° C | 58% | 1020.3 hPa | 0 mm | - | 0 W/m² | - |
| 1777752020 | 15.56° C | 57% | 1020.3 hPa | 0 mm | - | 0 W/m² | - |
| 1777751119 | 15.56° C | 56% | 1020.2 hPa | 0 mm | - | 0 W/m² | - |
| 1777750219 | 16.11° C | 54% | 1020.2 hPa | 0 mm | - | 0 W/m² | - |
| 1777749321 | 16.67° C | 53% | 1020.2 hPa | 0 mm | - | 0 W/m² | - |
| 1777748418 | 17.22° C | 51% | 1020.2 hPa | 0 mm | - | 0 W/m² | - |
| 1777747517 | 18.33° C | 48% | 1020 hPa | 0 mm | - | 0 W/m² | - |
| 1777746618 | 18.89° C | 46% | 1019.9 hPa | 0 mm | - | 0 W/m² | - |
| 1777745716 | 19.44° C | 41% | 1019.8 hPa | 0 mm | - | 5 W/m² | - |
| 1777744816 | 20.56° C | 41% | 1019.9 hPa | 0 mm | - | 12 W/m² | - |
| 1777743916 | 21.11° C | 39% | 1019.8 hPa | 0 mm | - | 23 W/m² | - |
| 1777743027 | 21.11° C | 38% | 1019.7 hPa | 0 mm | - | 28 W/m² | - |
| 1777742114 | 21.11° C | 37% | 1019.7 hPa | 0 mm | - | 32 W/m² | - |
| 1777741213 | 21.11° C | 38% | 1020 hPa | 0 mm | - | 30 W/m² | - |
| 1777740312 | 21.67° C | 36% | 1020 hPa | 0 mm | - | 30 W/m² | - |
* Rain since midnight (hover to see other rain measurements)
** Current wind speed in m/s (hover to see current wind gust speed)